Time;durP1;ratioP1;P1;durP2;ratioP2;P2;SDS_P1;SDS_P2;PMS_P1;PMS_P2;Temp;Humidity;BMP_temperature;BMP_pressure;BME280_temperature;BME280_humidity;BME280_pressure;Samples;Min_cycle;Max_cycle;Signal;HPM_P1;HPM_P2
2023/06/30 00:00:55;;;;;;;9.57;5.22;;;18.40;15.30;;;;;;5047637;28;20391;-76
2023/06/30 00:03:22;;;;;;;8.55;5.75;;;18.30;25.60;;;;;;5043540;28;20486;-76
2023/06/30 00:05:48;;;;;;;8.60;5.72;;;18.20;29.80;;;;;;5046205;28;20314;-76
2023/06/30 00:08:15;;;;;;;7.82;5.15;;;18.10;36.70;;;;;;5043423;28;20395;-77
2023/06/30 00:10:42;;;;;;;13.15;6.45;;;18.00;44.70;;;;;;5046873;28;20134;-76
2023/06/30 00:13:08;;;;;;;7.13;4.90;;;18.00;52.00;;;;;;5047209;28;20033;-77
2023/06/30 00:15:34;;;;;;;11.50;5.30;;;18.00;57.60;;;;;;5028965;28;20040;-75
2023/06/30 00:18:00;;;;;;;7.22;5.25;;;18.00;57.00;;;;;;5028735;28;20034;-76
2023/06/30 00:20:27;;;;;;;7.97;4.97;;;18.10;56.80;;;;;;5040917;28;20044;-79
2023/06/30 00:22:53;;;;;;;7.80;5.65;;;18.00;58.80;;;;;;5045274;28;20380;-77
2023/06/30 00:25:19;;;;;;;8.20;5.03;;;18.00;58.10;;;;;;5047131;28;20448;-75
2023/06/30 00:27:45;;;;;;;7.30;6.00;;;18.10;60.30;;;;;;5043573;28;20043;-76
2023/06/30 00:30:12;;;;;;;7.57;4.78;;;18.10;55.10;;;;;;5043910;28;20487;-79
2023/06/30 00:32:38;;;;;;;7.75;5.13;;;18.10;50.20;;;;;;5040264;28;20076;-76
2023/06/30 00:35:04;;;;;;;9.43;5.32;;;18.00;56.70;;;;;;5043168;28;20546;-77
2023/06/30 00:37:31;;;;;;;8.27;5.95;;;17.90;63.20;;;;;;5034369;28;20033;-77
2023/06/30 00:39:57;;;;;;;6.82;4.85;;;17.90;72.70;;;;;;5051932;28;20029;-76
2023/06/30 00:42:24;;;;;;;6.65;4.78;;;18.00;74.30;;;;;;5034294;28;20399;-76
2023/06/30 00:44:50;;;;;;;9.52;5.60;;;18.00;70.60;;;;;;5049804;28;20032;-76
2023/06/30 00:47:16;;;;;;;6.20;5.55;;;17.80;79.70;;;;;;5051730;28;20028;-75
2023/06/30 00:49:43;;;;;;;6.68;5.40;;;17.80;88.70;;;;;;5049366;28;20045;-76
2023/06/30 00:52:09;;;;;;;7.13;5.82;;;17.80;94.10;;;;;;5051787;28;20383;-75
2023/06/30 00:54:35;;;;;;;10.63;5.35;;;17.80;93.90;;;;;;5049621;28;20033;-76
2023/06/30 00:57:06;;;;;;;6.63;5.68;;;17.90;96.10;;;;;;5049479;28;20029;-77
2023/06/30 00:59:32;;;;;;;6.95;5.40;;;17.80;97.40;;;;;;5034110;28;20045;-77
2023/06/30 01:02:01;;;;;;;9.38;6.22;;;17.80;99.90;;;;;;5051262;28;20470;-75
2023/06/30 01:04:37;;;;;;;10.93;5.53;;;17.80;99.90;;;;;;5051101;28;20036;-76
2023/06/30 01:07:22;;;;;;;7.75;5.07;;;17.90;99.90;;;;;;5046375;28;20044;-76
2023/06/30 01:09:55;;;;;;;10.05;5.45;;;17.90;99.90;;;;;;5048063;28;20056;-78
2023/06/30 01:12:23;;;;;;;6.75;5.47;;;17.90;96.50;;;;;;5034260;28;20045;-76
2023/06/30 01:14:50;;;;;;;7.57;5.78;;;17.90;95.30;;;;;;5050841;28;20738;-76
2023/06/30 01:17:18;;;;;;;8.05;5.30;;;17.90;96.00;;;;;;5049460;28;20041;-76
2023/06/30 01:19:47;;;;;;;8.80;4.97;;;17.90;96.20;;;;;;5045136;28;20027;-74
2023/06/30 01:22:28;;;;;;;7.63;5.50;;;18.00;96.20;;;;;;5026673;28;20045;-76
2023/06/30 01:24:59;;;;;;;8.75;4.72;;;18.10;95.00;;;;;;5041972;28;20919;-76
2023/06/30 01:27:25;;;;;;;6.30;5.40;;;18.20;84.30;;;;;;5039259;28;20040;-76
2023/06/30 01:29:53;;;;;;;7.28;5.20;;;18.20;82.10;;;;;;5049474;28;20041;-76
2023/06/30 01:32:19;;;;;;;8.93;5.75;;;18.20;74.60;;;;;;5051222;28;20052;-77
2023/06/30 01:34:46;;;;;;;8.05;6.57;;;18.20;75.20;;;;;;5031069;28;20439;-77
2023/06/30 01:37:14;;;;;;;9.02;6.75;;;18.10;84.70;;;;;;5047915;28;20040;-78
2023/06/30 01:39:40;;;;;;;8.77;5.43;;;18.10;91.70;;;;;;5047123;28;20034;-78
2023/06/30 01:42:08;;;;;;;7.57;5.20;;;18.00;96.10;;;;;;5048323;28;20046;-78
2023/06/30 01:44:38;;;;;;;9.02;5.45;;;17.90;99.90;;;;;;5044491;28;20029;-77
2023/06/30 01:47:05;;;;;;;7.50;5.13;;;17.90;99.90;;;;;;5046990;28;20101;-77
2023/06/30 01:49:32;;;;;;;11.00;5.00;;;18.00;99.90;;;;;;5043926;28;20049;-78
2023/06/30 01:52:00;;;;;;;8.98;5.20;;;18.00;98.10;;;;;;5045623;28;20049;-77
2023/06/30 01:54:26;;;;;;;8.75;6.55;;;18.10;97.20;;;;;;5046165;28;20400;-77
2023/06/30 01:56:53;;;;;;;8.65;6.00;;;18.10;91.20;;;;;;5047159;28;20379;-77
2023/06/30 01:59:19;;;;;;;12.55;5.93;;;18.20;85.70;;;;;;5065470;28;20041;-77
2023/06/30 02:01:46;;;;;;;6.80;5.18;;;18.20;81.20;;;;;;5061833;28;20064;-76
2023/06/30 02:04:13;;;;;;;6.63;5.40;;;18.20;82.70;;;;;;5029846;28;20045;-77
2023/06/30 02:06:39;;;;;;;5.70;5.10;;;18.20;78.90;;;;;;5032162;28;20040;-76
2023/06/30 02:09:06;;;;;;;6.03;5.30;;;18.20;78.80;;;;;;5047967;28;20041;-76
2023/06/30 02:11:32;;;;;;;8.25;5.47;;;18.30;80.70;;;;;;5046686;28;20380;-77
2023/06/30 02:13:58;;;;;;;6.53;5.60;;;18.30;70.80;;;;;;5064040;28;20405;-76
2023/06/30 02:16:24;;;;;;;9.75;6.28;;;18.30;70.00;;;;;;5045031;28;20029;-75
2023/06/30 02:18:54;;;;;;;6.38;5.07;;;18.40;73.30;;;;;;5047280;28;20036;-78
2023/06/30 02:21:22;;;;;;;6.50;5.63;;;18.30;70.10;;;;;;5046834;28;20037;-78
2023/06/30 02:23:48;;;;;;;8.02;6.43;;;18.40;66.40;;;;;;5049011;28;20029;-77
2023/06/30 02:26:15;;;;;;;10.57;5.47;;;18.40;66.70;;;;;;5049645;28;20087;-76
2023/06/30 02:28:41;;;;;;;10.13;6.30;;;18.40;62.70;;;;;;5053540;28;20510;-76
2023/06/30 02:31:08;;;;;;;6.78;5.07;;;18.30;63.90;;;;;;5032065;28;20052;-76
2023/06/30 02:33:35;;;;;;;9.60;6.38;;;18.20;67.40;;;;;;5046587;28;20038;-80
2023/06/30 02:36:05;;;;;;;8.00;5.70;;;18.20;74.80;;;;;;5046183;28;20049;-77
2023/06/30 02:38:31;;;;;;;8.55;6.15;;;18.20;81.80;;;;;;5046553;28;20032;-76
2023/06/30 02:41:00;;;;;;;8.02;5.47;;;18.10;84.60;;;;;;5049044;28;20025;-76
2023/06/30 02:43:28;;;;;;;11.57;6.68;;;18.10;90.70;;;;;;5048419;28;20037;-75
2023/06/30 02:45:54;;;;;;;9.15;6.45;;;18.10;96.30;;;;;;5030464;28;20775;-77
2023/06/30 02:48:20;;;;;;;7.60;6.07;;;18.00;99.00;;;;;;5029966;28;20384;-76
2023/06/30 02:50:47;;;;;;;8.02;6.40;;;18.00;99.90;;;;;;5065623;28;20068;-76
2023/06/30 02:53:15;;;;;;;9.23;5.90;;;18.10;99.90;;;;;;5049070;28;20041;-77
2023/06/30 02:55:41;;;;;;;10.27;6.28;;;18.10;99.90;;;;;;5031580;28;20053;-77
2023/06/30 02:58:12;;;;;;;7.85;5.97;;;18.00;99.90;;;;;;5029670;28;20790;-76
2023/06/30 03:00:39;;;;;;;6.75;5.47;;;18.10;99.90;;;;;;5062202;28;20052;-77
2023/06/30 03:03:06;;;;;;;8.60;5.97;;;18.10;99.90;;;;;;5048238;28;20029;-76
2023/06/30 03:05:34;;;;;;;7.63;5.40;;;18.10;99.90;;;;;;5045837;28;20037;-76
2023/06/30 03:08:03;;;;;;;10.10;5.65;;;18.00;99.90;;;;;;5028045;28;20045;-75
2023/06/30 03:10:30;;;;;;;6.78;5.47;;;18.00;99.90;;;;;;5030132;28;20047;-75
2023/06/30 03:12:58;;;;;;;8.48;7.05;;;18.00;99.90;;;;;;5040097;28;20033;-75
2023/06/30 03:15:25;;;;;;;13.00;6.70;;;17.90;99.90;;;;;;5063750;28;20060;-76
2023/06/30 03:17:53;;;;;;;8.10;6.43;;;17.90;99.90;;;;;;5057908;28;20053;-77
2023/06/30 03:20:19;;;;;;;13.23;6.50;;;17.90;99.90;;;;;;5047907;28;20036;-76
2023/06/30 03:22:46;;;;;;;8.65;6.20;;;17.80;99.90;;;;;;5060266;28;20048;-77
2023/06/30 03:25:12;;;;;;;8.82;5.55;;;17.80;99.90;;;;;;5048485;28;20040;-76
2023/06/30 03:27:38;;;;;;;6.60;4.93;;;17.70;99.90;;;;;;5045674;28;20036;-77
2023/06/30 03:30:06;;;;;;;10.38;6.05;;;17.70;99.90;;;;;;5045908;28;20053;-76
2023/06/30 03:32:40;;;;;;;6.35;5.30;;;17.70;99.90;;;;;;5045479;28;20049;-76
2023/06/30 03:35:07;;;;;;;7.53;6.37;;;17.70;99.90;;;;;;5029318;28;20479;-76
2023/06/30 03:37:33;;;;;;;7.95;6.38;;;17.60;99.90;;;;;;5042496;28;20049;-76
2023/06/30 03:40:00;;;;;;;6.20;5.60;;;17.50;99.90;;;;;;5045794;28;20099;-76
2023/06/30 03:42:27;;;;;;;9.50;6.65;;;17.40;99.90;;;;;;5044964;28;20404;-77
2023/06/30 03:44:53;;;;;;;8.48;6.55;;;17.40;99.90;;;;;;5044851;28;20041;-77
2023/06/30 03:47:19;;;;;;;7.82;6.75;;;17.40;99.90;;;;;;5031878;28;20036;-75
2023/06/30 03:49:46;;;;;;;7.90;6.38;;;17.40;99.90;;;;;;5057453;28;20550;-75
2023/06/30 03:52:12;;;;;;;10.75;7.13;;;17.50;99.90;;;;;;5048509;28;20460;-76
2023/06/30 03:54:41;;;;;;;10.48;6.95;;;17.70;99.90;;;;;;5032235;28;20048;-78
2023/06/30 03:57:08;;;;;;;12.40;6.63;;;17.80;99.90;;;;;;5032490;28;20064;-77
2023/06/30 03:59:34;;;;;;;9.50;6.22;;;18.00;99.90;;;;;;5036386;28;20052;-76
2023/06/30 04:02:00;;;;;;;11.18;6.28;;;18.30;99.90;;;;;;5031142;28;20577;-76
2023/06/30 04:04:26;;;;;;;13.63;6.78;;;18.60;99.90;;;;;;5046827;28;20037;-77
2023/06/30 04:06:52;;;;;;;10.30;6.80;;;18.70;99.90;;;;;;5045919;28;20029;-77
2023/06/30 04:09:18;;;;;;;10.10;6.38;;;18.80;99.90;;;;;;5049699;28;20052;-77
2023/06/30 04:11:44;;;;;;;9.38;7.30;;;18.90;99.90;;;;;;5048709;28;20025;-78
2023/06/30 04:14:11;;;;;;;9.02;6.03;;;18.90;99.90;;;;;;5052131;28;20033;-77
2023/06/30 04:16:37;;;;;;;11.43;6.65;;;18.80;99.90;;;;;;5050790;28;20029;-76
2023/06/30 04:19:03;;;;;;;12.25;6.68;;;18.60;99.90;;;;;;5046593;28;20025;-76
2023/06/30 04:21:29;;;;;;;9.70;7.70;;;18.50;99.90;;;;;;5044728;28;20044;-78
2023/06/30 04:23:55;;;;;;;18.20;8.35;;;18.20;99.90;;;;;;5050589;28;20037;-79
2023/06/30 04:26:21;;;;;;;13.95;8.18;;;18.00;99.90;;;;;;5061683;28;20041;-79
2023/06/30 04:28:47;;;;;;;14.23;8.90;;;17.60;99.90;;;;;;5055968;28;20037;-83
2023/06/30 04:31:14;;;;;;;17.83;9.10;;;17.40;1.00;;;;;;5051731;28;20029;-82
2023/06/30 04:33:40;;;;;;;13.93;9.48;;;17.30;1.00;;;;;;5052846;28;20471;-86
2023/06/30 04:36:07;;;;;;;12.25;9.77;;;17.20;1.00;;;;;;5049373;28;20486;-81
2023/06/30 04:38:34;;;;;;;16.73;10.02;;;17.10;1.00;;;;;;5050462;28;20223;-80
2023/06/30 04:41:00;;;;;;;12.52;10.85;;;17.10;1.00;;;;;;5051636;28;20036;-81
2023/06/30 04:43:26;;;;;;;15.85;10.50;;;17.10;1.00;;;;;;5048948;28;20034;-81
2023/06/30 04:45:52;;;;;;;16.65;10.88;;;17.20;1.00;;;;;;5032325;28;20444;-80
2023/06/30 04:48:18;;;;;;;17.13;11.80;;;17.20;1.00;;;;;;5034065;28;20115;-80
2023/06/30 04:50:45;;;;;;;18.63;11.00;;;17.30;1.00;;;;;;5064442;28;20036;-81
2023/06/30 04:53:11;;;;;;;16.08;11.40;;;17.40;1.00;;;;;;5048752;28;20056;-80
2023/06/30 04:55:37;;;;;;;13.60;10.95;;;17.40;1.00;;;;;;5061646;28;20472;-80
2023/06/30 04:58:03;;;;;;;13.40;10.27;;;17.50;1.00;;;;;;5046248;28;20034;-80
2023/06/30 05:00:30;;;;;;;15.18;11.35;;;17.50;1.00;;;;;;5047582;28;20030;-80
2023/06/30 05:02:56;;;;;;;19.73;12.30;;;17.50;1.00;;;;;;5050582;28;20033;-80
2023/06/30 05:05:22;;;;;;;15.35;11.35;;;17.50;1.00;;;;;;5051499;28;20422;-78
2023/06/30 05:07:48;;;;;;;15.65;11.82;;;17.60;1.00;;;;;;5064854;28;20032;-80
2023/06/30 05:10:14;;;;;;;16.52;10.70;;;17.60;1.00;;;;;;5048253;28;20040;-81
2023/06/30 05:12:41;;;;;;;18.15;11.23;;;17.70;1.00;;;;;;5049155;28;20036;-87
2023/06/30 05:15:07;;;;;;;16.92;11.55;;;17.70;1.00;;;;;;5047705;28;20029;-79
2023/06/30 05:17:34;;;;;;;14.80;11.48;;;17.80;1.00;;;;;;5047937;28;20040;-84
2023/06/30 05:20:04;;;;;;;20.48;12.30;;;17.80;1.00;;;;;;5048936;28;20698;-79
2023/06/30 05:22:31;;;;;;;20.17;14.02;;;17.90;1.00;;;;;;5053334;28;20040;-79
2023/06/30 05:24:57;;;;;;;18.33;12.10;;;17.90;1.00;;;;;;5051930;28;20041;-80
2023/06/30 05:27:23;;;;;;;17.75;11.77;;;18.00;1.00;;;;;;5048998;28;20037;-81
2023/06/30 05:29:50;;;;;;;16.75;11.57;;;18.10;1.00;;;;;;5061921;28;20400;-80
2023/06/30 05:32:16;;;;;;;17.73;12.50;;;18.20;1.00;;;;;;5047593;28;20032;-80
2023/06/30 05:34:43;;;;;;;15.88;11.88;;;18.30;1.00;;;;;;5033851;28;20037;-86
2023/06/30 05:37:09;;;;;;;14.40;11.70;;;18.40;1.00;;;;;;5049207;28;20532;-79
2023/06/30 05:39:36;;;;;;;17.63;12.07;;;18.50;1.00;;;;;;5048602;28;20034;-80
2023/06/30 05:42:02;;;;;;;18.45;12.55;;;18.70;1.00;;;;;;5048085;28;20227;-80
2023/06/30 05:44:28;;;;;;;15.50;12.50;;;18.80;1.00;;;;;;5048857;28;20025;-79
2023/06/30 05:46:54;;;;;;;15.38;12.02;;;19.00;1.00;;;;;;5066159;28;20372;-78
2023/06/30 05:49:20;;;;;;;15.20;11.20;;;19.30;1.00;;;;;;5046190;28;20048;-81
2023/06/30 05:51:46;;;;;;;16.02;10.10;;;19.40;99.90;;;;;;5065534;28;20049;-79
2023/06/30 05:54:13;;;;;;;16.65;10.98;;;19.40;99.90;;;;;;5049131;28;20040;-79
2023/06/30 05:56:39;;;;;;;16.90;11.00;;;19.50;99.90;;;;;;5044797;28;20036;-80
2023/06/30 05:59:09;;;;;;;17.40;10.95;;;19.70;99.90;;;;;;5057844;28;20056;-78
2023/06/30 06:01:39;;;;;;;19.92;11.45;;;19.80;99.90;;;;;;5043969;28;20033;-79
2023/06/30 06:04:10;;;;;;;13.48;10.73;;;19.90;99.90;;;;;;5048801;28;20036;-79
2023/06/30 06:06:39;;;;;;;16.73;12.40;;;19.90;99.90;;;;;;5052833;28;20029;-80
2023/06/30 06:09:06;;;;;;;17.17;11.73;;;20.10;99.90;;;;;;5029125;28;20045;-80
2023/06/30 06:11:32;;;;;;;13.80;10.80;;;20.30;99.90;;;;;;5048749;28;20033;-79
2023/06/30 06:13:58;;;;;;;14.30;10.60;;;20.30;99.90;;;;;;5025451;28;20423;-81
2023/06/30 06:16:24;;;;;;;23.80;12.77;;;20.20;99.90;;;;;;5049017;28;20033;-79
2023/06/30 06:18:50;;;;;;;13.73;10.65;;;20.20;99.90;;;;;;5048181;28;20067;-82
2023/06/30 06:21:17;;;;;;;19.33;11.82;;;20.10;99.90;;;;;;5048787;28;20029;-78
2023/06/30 06:23:44;;;;;;;18.15;11.38;;;20.10;99.90;;;;;;5050459;28;20033;-83
2023/06/30 06:26:10;;;;;;;16.52;12.18;;;19.80;99.90;;;;;;5048877;28;20048;-79
2023/06/30 06:28:36;;;;;;;14.43;11.45;;;19.90;99.90;;;;;;5026164;28;20044;-81
2023/06/30 06:31:03;;;;;;;19.08;12.35;;;20.00;99.90;;;;;;5031878;28;20037;-81
2023/06/30 06:33:30;;;;;;;19.98;12.18;;;20.10;99.90;;;;;;5065361;28;20039;-81
2023/06/30 06:35:56;;;;;;;16.77;12.40;;;20.20;99.90;;;;;;5016240;28;20044;-80
2023/06/30 06:38:22;;;;;;;18.45;12.68;;;20.20;99.90;;;;;;5049910;28;20036;-81
2023/06/30 06:40:48;;;;;;;17.15;11.80;;;20.20;99.90;;;;;;5048279;28;20033;-80
2023/06/30 06:43:15;;;;;;;17.88;12.15;;;20.20;99.90;;;;;;5050142;28;20032;-77
2023/06/30 06:45:43;;;;;;;17.25;12.88;;;20.30;99.90;;;;;;5048532;28;20045;-79
2023/06/30 06:48:27;;;;;;;19.58;13.43;;;20.40;99.90;;;;;;5039490;28;20063;-80
2023/06/30 06:50:57;;;;;;;16.48;13.25;;;20.20;99.90;;;;;;5048516;28;20048;-79
2023/06/30 06:53:27;;;;;;;20.65;13.70;;;20.20;99.90;;;;;;5045897;28;20525;-81
2023/06/30 06:55:54;;;;;;;18.83;12.65;;;20.30;99.90;;;;;;5060385;28;20029;-80
2023/06/30 06:58:21;;;;;;;19.98;14.35;;;20.20;99.90;;;;;;5030355;28;20049;-80
2023/06/30 07:00:49;;;;;;;16.83;12.43;;;20.30;99.90;;;;;;5062199;28;20195;-80
2023/06/30 07:03:15;;;;;;;23.25;14.38;;;20.20;99.90;;;;;;5046326;28;20033;-80
2023/06/30 07:05:44;;;;;;;19.60;14.10;;;20.30;99.90;;;;;;5048058;28;20036;-80
2023/06/30 07:08:11;;;;;;;26.35;15.25;;;20.40;99.90;;;;;;5046973;28;20037;-79
2023/06/30 07:10:38;;;;;;;22.63;15.73;;;20.60;99.90;;;;;;5061572;28;20043;-79
2023/06/30 07:13:05;;;;;;;26.25;16.73;;;20.70;99.90;;;;;;5045835;28;20036;-79
2023/06/30 07:15:31;;;;;;;22.45;17.38;;;20.60;99.90;;;;;;5029783;28;20041;-79
2023/06/30 07:17:57;;;;;;;23.27;15.85;;;20.50;99.90;;;;;;5045688;28;20071;-79
2023/06/30 07:20:24;;;;;;;24.63;16.90;;;20.60;99.90;;;;;;5030418;28;20136;-79
2023/06/30 07:22:54;;;;;;;24.45;18.33;;;20.80;99.90;;;;;;5048940;28;20033;-78
2023/06/30 07:25:21;;;;;;;29.48;19.23;;;20.80;99.90;;;;;;5048925;28;20032;-79
2023/06/30 07:27:52;;;;;;;30.48;19.70;;;20.70;99.90;;;;;;5043724;28;20041;-80
2023/06/30 07:30:20;;;;;;;31.85;21.77;;;20.60;99.90;;;;;;5058449;28;20412;-79
2023/06/30 07:32:48;;;;;;;31.80;21.45;;;20.80;99.90;;;;;;5044710;28;20040;-86
2023/06/30 07:35:14;;;;;;;34.17;22.33;;;20.80;99.90;;;;;;5060326;28;20032;-79
2023/06/30 07:37:40;;;;;;;31.50;21.98;;;20.70;99.90;;;;;;5047153;28;20032;-78
2023/06/30 07:40:07;;;;;;;35.97;23.52;;;20.70;99.90;;;;;;5028842;28;20049;-80
2023/06/30 07:42:33;;;;;;;36.53;23.48;;;20.70;99.90;;;;;;5048849;28;20025;-78
2023/06/30 07:44:59;;;;;;;33.60;24.50;;;20.70;99.90;;;;;;5047196;28;20033;-79
2023/06/30 07:47:26;;;;;;;35.28;23.17;;;20.70;99.90;;;;;;5045884;28;20079;-79
2023/06/30 07:49:52;;;;;;;40.80;27.00;;;20.60;99.90;;;;;;5029615;28;20499;-78
2023/06/30 07:52:18;;;;;;;36.58;24.20;;;20.60;99.90;;;;;;5047435;28;20029;-80
2023/06/30 07:54:46;;;;;;;34.53;24.52;;;20.70;99.90;;;;;;5049166;28;20044;-78
2023/06/30 07:57:12;;;;;;;37.40;26.30;;;20.90;99.90;;;;;;5046557;28;20037;-80
2023/06/30 07:59:38;;;;;;;39.08;26.98;;;20.80;99.90;;;;;;5040902;28;20053;-83
2023/06/30 08:02:06;;;;;;;41.65;26.73;;;20.70;99.90;;;;;;5040381;28;20037;-82
2023/06/30 08:04:32;;;;;;;43.33;28.38;;;20.80;99.90;;;;;;5046024;28;20036;-79
2023/06/30 08:06:58;;;;;;;49.17;29.88;;;20.50;99.90;;;;;;5047050;28;20048;-77
2023/06/30 08:09:24;;;;;;;40.67;26.42;;;20.40;99.90;;;;;;5044553;28;20043;-79
2023/06/30 08:11:50;;;;;;;45.50;28.83;;;20.40;99.90;;;;;;5061774;28;20053;-77
2023/06/30 08:14:16;;;;;;;41.45;27.60;;;20.40;99.90;;;;;;5045943;28;20048;-79
2023/06/30 08:16:43;;;;;;;40.20;25.83;;;20.50;99.90;;;;;;5028971;28;20064;-78
2023/06/30 08:19:09;;;;;;;35.45;23.15;;;20.50;99.90;;;;;;5046950;28;20080;-78
2023/06/30 08:21:35;;;;;;;32.47;22.05;;;20.40;99.90;;;;;;5046101;28;20334;-79
2023/06/30 08:24:01;;;;;;;31.38;20.95;;;20.40;99.90;;;;;;5047428;28;20041;-88
2023/06/30 08:26:27;;;;;;;24.98;16.45;;;20.40;99.90;;;;;;5044501;28;20044;-81
2023/06/30 08:28:55;;;;;;;25.38;16.63;;;20.40;99.90;;;;;;5047082;28;20432;-79
2023/06/30 08:31:21;;;;;;;22.48;14.05;;;20.40;99.90;;;;;;5044544;28;20060;-79
2023/06/30 08:33:48;;;;;;;18.17;11.98;;;20.40;99.90;;;;;;5048304;28;20028;-80
2023/06/30 08:36:14;;;;;;;14.40;9.93;;;20.10;99.90;;;;;;5031337;28;20608;-80
2023/06/30 08:38:40;;;;;;;13.60;8.95;;;19.90;99.90;;;;;;5048245;28;20025;-84
2023/06/30 08:41:07;;;;;;;9.25;8.32;;;19.80;99.90;;;;;;5043137;28;20368;-82
2023/06/30 08:43:34;;;;;;;9.05;6.90;;;19.50;99.90;;;;;;5046659;28;20415;-83
2023/06/30 08:46:01;;;;;;;11.60;6.88;;;19.60;99.90;;;;;;5029677;28;20059;-85
2023/06/30 08:48:30;;;;;;;9.05;6.30;;;19.50;99.90;;;;;;5046368;28;20037;-81
2023/06/30 08:50:58;;;;;;;8.30;5.70;;;19.30;99.90;;;;;;5060166;28;20053;-79
2023/06/30 08:53:26;;;;;;;6.63;5.55;;;19.40;99.90;;;;;;5045326;28;20392;-80
2023/06/30 08:55:54;;;;;;;7.13;5.28;;;19.50;99.90;;;;;;5051272;28;20495;-80
2023/06/30 08:58:20;;;;;;;7.30;4.80;;;19.50;99.90;;;;;;5058269;28;20052;-79
2023/06/30 09:00:48;;;;;;;5.95;4.45;;;19.40;99.90;;;;;;5029789;28;20041;-78
2023/06/30 09:03:14;;;;;;;7.35;5.18;;;19.50;99.90;;;;;;5030931;28;20040;-80
2023/06/30 09:05:42;;;;;;;6.28;4.53;;;19.50;99.90;;;;;;5030385;28;20492;-78
2023/06/30 09:08:16;;;;;;;6.13;4.22;;;19.50;99.90;;;;;;5028601;28;20029;-77
2023/06/30 09:10:43;;;;;;;6.68;4.00;;;19.50;99.90;;;;;;5045800;28;20484;-78
2023/06/30 09:13:10;;;;;;;10.00;4.43;;;19.40;99.90;;;;;;5006558;28;20556;-79
2023/06/30 09:15:38;;;;;;;5.15;4.13;;;19.40;99.90;;;;;;5029841;28;20156;-76
2023/06/30 09:18:05;;;;;;;7.22;4.70;;;19.40;99.90;;;;;;5010507;28;20046;-77
2023/06/30 09:20:31;;;;;;;5.75;4.32;;;19.30;99.90;;;;;;5031999;28;20040;-78
2023/06/30 09:22:57;;;;;;;5.47;4.13;;;19.20;99.90;;;;;;5024880;28;20037;-79
2023/06/30 09:25:26;;;;;;;5.78;4.45;;;19.10;99.90;;;;;;5030794;28;20040;-77
2023/06/30 09:27:53;;;;;;;7.00;4.22;;;19.00;99.90;;;;;;5039710;28;20053;-78
2023/06/30 09:30:32;;;;;;;8.48;5.10;;;18.90;99.90;;;;;;5029320;28;20037;-80
2023/06/30 09:32:58;;;;;;;5.53;3.97;;;18.80;99.90;;;;;;5026239;28;20036;-79
2023/06/30 09:35:24;;;;;;;5.68;3.92;;;18.70;99.90;;;;;;5006425;28;20112;-80
2023/06/30 09:37:53;;;;;;;6.00;3.38;;;18.80;99.90;;;;;;5045028;28;20511;-84
2023/06/30 09:40:25;;;;;;;5.68;3.28;;;18.80;99.90;;;;;;5028635;28;20052;-80
2023/06/30 09:42:54;;;;;;;4.45;2.65;;;19.00;99.90;;;;;;5028470;28;20030;-79
2023/06/30 09:45:20;;;;;;;3.67;2.33;;;19.10;99.90;;;;;;5027658;28;20487;-79
2023/06/30 09:47:53;;;;;;;4.70;2.50;;;19.20;99.90;;;;;;5009823;28;20045;-79
2023/06/30 09:50:27;;;;;;;4.13;2.75;;;19.20;99.90;;;;;;5014095;28;20052;-81
2023/06/30 09:52:54;;;;;;;3.67;2.55;;;19.20;99.90;;;;;;5029437;28;20038;-80
2023/06/30 09:55:20;;;;;;;5.45;3.33;;;19.40;99.90;;;;;;5037419;28;20056;-81
2023/06/30 09:57:46;;;;;;;3.30;2.45;;;19.70;99.90;;;;;;5031071;28;20029;-80
2023/06/30 10:00:14;;;;;;;3.17;2.00;;;20.00;96.80;;;;;;5048558;28;20371;-81
2023/06/30 10:02:40;;;;;;;4.80;3.38;;;20.00;92.10;;;;;;5048846;28;20048;-81
2023/06/30 10:05:07;;;;;;;6.25;3.67;;;19.90;95.20;;;;;;5047517;28;20381;-80
2023/06/30 10:07:35;;;;;;;5.80;2.90;;;19.90;99.90;;;;;;5023202;28;20048;-80
2023/06/30 10:10:02;;;;;;;4.25;2.97;;;20.40;94.90;;;;;;5048815;28;20040;-85
2023/06/30 10:12:35;;;;;;;5.15;3.35;;;20.50;67.10;;;;;;5047595;28;20411;-84
2023/06/30 10:15:02;;;;;;;8.02;4.07;;;20.40;70.30;;;;;;4999967;28;20053;-82
2023/06/30 10:17:29;;;;;;;4.75;3.15;;;20.20;93.50;;;;;;5008537;28;20037;-78
2023/06/30 10:19:59;;;;;;;3.47;2.38;;;20.10;95.00;;;;;;5002431;28;20054;-82
2023/06/30 10:22:27;;;;;;;3.53;2.40;;;20.00;98.20;;;;;;5001304;28;20054;-82
2023/06/30 10:24:55;;;;;;;4.65;1.90;;;20.00;94.90;;;;;;5002005;28;20049;-84
2023/06/30 10:27:23;;;;;;;3.78;1.95;;;20.00;95.60;;;;;;5008794;28;20042;-79
2023/06/30 10:29:49;;;;;;;6.72;1.90;;;20.00;97.60;;;;;;5006052;28;20138;-80
2023/06/30 10:32:20;;;;;;;3.88;2.15;;;20.10;92.80;;;;;;5008609;28;20034;-82
2023/06/30 10:34:47;;;;;;;4.53;2.80;;;20.30;73.50;;;;;;5011115;28;20369;-80
2023/06/30 10:37:14;;;;;;;4.82;2.80;;;20.20;71.30;;;;;;5009272;28;20034;-82
2023/06/30 10:39:41;;;;;;;5.57;2.95;;;20.20;76.60;;;;;;5004904;28;20050;-79
2023/06/30 10:42:11;;;;;;;4.60;2.90;;;20.30;57.10;;;;;;5008150;28;20133;-81
2023/06/30 10:44:39;;;;;;;3.95;2.63;;;20.30;51.80;;;;;;4988868;28;20046;-80
2023/06/30 10:47:05;;;;;;;5.85;3.90;;;20.30;66.10;;;;;;4992479;28;20046;-79
2023/06/30 10:49:36;;;;;;;5.43;3.05;;;20.10;64.40;;;;;;5002631;28;20049;-84
2023/06/30 10:52:06;;;;;;;6.75;3.13;;;20.20;70.10;;;;;;5004007;28;20049;-81
2023/06/30 10:54:40;;;;;;;8.88;3.15;;;20.30;53.40;;;;;;5041755;28;20033;-82
2023/06/30 10:57:17;;;;;;;5.07;2.30;;;20.30;54.60;;;;;;5048504;28;20029;-83
2023/06/30 11:00:03;;;;;;;4.72;3.35;;;20.60;39.80;;;;;;5033142;28;20053;-81
2023/06/30 11:02:33;;;;;;;7.43;3.67;;;20.90;15.40;;;;;;5048210;28;20033;-80
2023/06/30 11:05:24;;;;;;;5.20;2.95;;;20.80;1.00;;;;;;5047231;28;20459;-85
2023/06/30 11:07:53;;;;;;;3.50;2.53;;;21.20;1.00;;;;;;5044960;28;20112;-82
2023/06/30 11:10:32;;;;;;;4.28;2.92;;;21.70;1.00;;;;;;5034229;28;20037;-79
2023/06/30 11:13:03;;;;;;;4.95;3.15;;;21.40;1.00;;;;;;5046518;28;20044;-81
2023/06/30 11:15:35;;;;;;;4.88;3.00;;;21.40;1.00;;;;;;5037678;28;20404;-81
2023/06/30 11:18:02;;;;;;;4.60;3.25;;;21.80;1.00;;;;;;5049121;28;20421;-81
2023/06/30 11:20:29;;;;;;;6.30;3.78;;;22.00;1.00;;;;;;5032483;28;20037;-87
2023/06/30 11:23:00;;;;;;;6.32;4.65;;;21.80;1.00;;;;;;5048304;28;20029;-82
2023/06/30 11:25:30;;;;;;;8.55;5.43;;;21.50;1.00;;;;;;5046858;28;20044;-88
2023/06/30 11:27:58;;;;;;;7.13;5.10;;;21.50;1.00;;;;;;5049002;28;20074;-83
2023/06/30 11:30:26;;;;;;;7.95;5.25;;;21.40;1.00;;;;;;5033571;28;20033;-78
2023/06/30 11:32:58;;;;;;;7.93;5.07;;;21.50;1.00;;;;;;5048902;28;20377;-80
2023/06/30 11:35:25;;;;;;;6.32;4.82;;;21.40;1.00;;;;;;5047764;28;20464;-78
2023/06/30 11:37:53;;;;;;;7.63;5.22;;;21.50;1.00;;;;;;5045185;28;20040;-77
2023/06/30 11:40:21;;;;;;;8.13;4.70;;;21.50;1.00;;;;;;5046756;28;20459;-76
2023/06/30 11:42:48;;;;;;;7.65;4.30;;;21.50;1.00;;;;;;5047511;28;20033;-75
2023/06/30 11:45:27;;;;;;;7.53;5.43;;;21.80;1.00;;;;;;5048281;28;20782;-77
2023/06/30 11:47:55;;;;;;;6.88;4.97;;;21.90;1.00;;;;;;5046495;28;20048;-80
2023/06/30 11:50:22;;;;;;;6.20;4.85;;;21.80;1.00;;;;;;5064787;28;20037;-78
2023/06/30 11:52:48;;;;;;;10.43;5.63;;;21.70;1.00;;;;;;5048625;28;20037;-79
2023/06/30 11:55:15;;;;;;;7.28;4.55;;;21.50;1.00;;;;;;5043304;28;20504;-77
2023/06/30 11:57:46;;;;;;;5.70;4.25;;;21.40;1.00;;;;;;5046657;28;20029;-76
2023/06/30 12:00:14;;;;;;;8.75;5.72;;;21.50;1.00;;;;;;5005197;28;20055;-77
2023/06/30 12:02:57;;;;;;;6.45;5.28;;;21.70;1.00;;;;;;4953979;29;20046;-90
2023/06/30 12:05:25;;;;;;;6.35;5.60;;;21.60;1.00;;;;;;4945154;29;20035;-80
2023/06/30 12:07:56;;;;;;;10.50;6.32;;;21.80;1.00;;;;;;5013349;28;20035;-82
2023/06/30 12:10:36;;;;;;;9.77;5.32;;;22.00;1.00;;;;;;5015264;28;20055;-82
2023/06/30 12:13:06;;;;;;;8.77;6.88;;;22.50;1.00;;;;;;4944179;29;20028;-78
2023/06/30 12:15:32;;;;;;;9.35;5.90;;;22.60;99.90;;;;;;4937783;29;20036;-80
2023/06/30 12:17:58;;;;;;;8.80;5.30;;;22.40;1.00;;;;;;4939722;29;20040;-80
2023/06/30 12:20:33;;;;;;;7.68;6.15;;;22.30;99.90;;;;;;4947377;29;20042;-81
2023/06/30 12:22:59;;;;;;;9.52;6.45;;;22.30;1.00;;;;;;5014711;28;20504;-82
2023/06/30 12:25:29;;;;;;;9.90;5.80;;;22.60;99.90;;;;;;4949086;29;20042;-79
2023/06/30 12:27:55;;;;;;;9.07;5.82;;;22.70;99.90;;;;;;4945449;29;20038;-79
2023/06/30 12:30:22;;;;;;;8.60;6.45;;;23.00;99.90;;;;;;4948156;29;20066;-79
2023/06/30 12:32:59;;;;;;;8.88;5.50;;;23.00;99.90;;;;;;5003125;28;20031;-80
2023/06/30 12:35:39;;;;;;;8.15;5.50;;;23.00;99.90;;;;;;4949235;29;20481;-78
2023/06/30 12:38:07;;;;;;;6.47;5.70;;;23.20;99.90;;;;;;5015360;28;20418;-78
2023/06/30 12:40:34;;;;;;;8.75;6.38;;;23.30;99.90;;;;;;5049160;28;20062;-77
2023/06/30 12:43:00;;;;;;;8.65;6.03;;;23.10;99.90;;;;;;4950486;29;20032;-83